Stations météo

Publicité
Kew Gardens, Grande-Bretagne (99095): Température de l'air & dewpoint: 18.01.2021 06:00:00 - 24.01.2021 06:00:00 (GMT)Kew Gardens, Grande-Bretagne (99095): Température de l'air -20cm & Température de l'air -100cm: 18.01.2021 06:00:00 - 24.01.2021 06:00:00 (GMT)Kew Gardens, Grande-Bretagne (99095): Vitesse du vent & gusts: 18.01.2021 06:00:00 - 24.01.2021 06:00:00 (GMT)Kew Gardens, Grande-Bretagne (99095): Direction du vent: 18.01.2021 06:00:00 - 24.01.2021 06:00:00 (GMT)Kew Gardens, Grande-Bretagne (99095): Quantités de précipitations: 18.01.2021 06:00:00 - 24.01.2021 06:00:00 (GMT)
Date & Time tt [°C] td [°C] tt -20cm [°C] tt -100cm [°C] ff [km/h] ff [knt] fx [km/h] fx [knt] dd rr [mm]
24.01.2021 06:00:00 -2,8 -3,1 - - 2 1 - - ESE 0,0
24.01.2021 05:00:00 -3,3 -3,6 - - 2 1 - - E 0,0
24.01.2021 04:00:00 -3,7 -4,1 - - 4 2 - - SW 0,0
24.01.2021 03:00:00 -3,4 -3,8 - - 4 2 - - SW 0,0
24.01.2021 02:00:00 -3,4 -3,8 - - 4 2 - - SW 0,0
24.01.2021 01:00:00 -3,0 -3,4 - - 4 2 - - WSW 0,0
24.01.2021 00:00:00 -2,8 -3,1 - - 4 2 - - WSW 0,0
23.01.2021 23:00:00 -2,3 -2,6 - - 4 2 - - WSW 0,0
23.01.2021 22:00:00 -2,0 -2,5 - - 4 2 - - W 0,0
23.01.2021 21:00:00 -1,7 -3,2 - - 4 2 - - W 0,0
23.01.2021 20:00:00 1,4 -1,0 - - 9 5 - - NW 0,0
23.01.2021 19:00:00 2,1 -0,9 - - 11 6 - - NW 0,0
23.01.2021 18:00:00 2,1 -1,0 - - 8 4 - - WNW 0,0
23.01.2021 17:00:00 3,1 -0,3 - - 8 4 - - WNW 0,0
23.01.2021 16:00:00 3,6 0,0 - - 9 5 - - NW 0,0
23.01.2021 15:00:00 3,8 -0,5 - - 18 10 - - NW 0,0
23.01.2021 14:00:00 4,4 2,3 - - 8 4 - - W 0,0
23.01.2021 13:00:00 1,8 1,3 - - 8 4 - - WNW 0,0
23.01.2021 12:00:00 0,7 0,5 - - 5 3 - - W 0,0
23.01.2021 11:00:00 0,7 0,7 - - 2 1 - - W 0,0
23.01.2021 10:00:00 -0,6 -0,7 - - 2 1 - - S 0,0
23.01.2021 09:00:00 -1,3 -1,4 5,2 8,5 2 1 - - W 0,0
23.01.2021 08:00:00 -1,5 -1,8 - - 2 1 - - WSW 0,0
23.01.2021 07:00:00 -1,2 -1,6 - - 2 1 - - SW 0,0
23.01.2021 06:00:00 -0,3 -0,9 - - 2 1 - - SSW 0,0
23.01.2021 05:00:00 1,2 -0,2 - - 2 1 - - WSW 0,0
23.01.2021 04:00:00 2,3 0,8 - - 8 4 - - WNW 0,0
23.01.2021 03:00:00 2,4 0,9 - - 8 4 - - W 0,0
23.01.2021 02:00:00 2,7 1,2 - - 8 4 - - WNW 0,0
23.01.2021 01:00:00 3,1 1,7 - - 11 6 - - W 0,0
23.01.2021 00:00:00 3,6 2,8 - - 9 5 - - W 0,6
22.01.2021 23:00:00 2,7 1,9 - - 5 3 - - SW 0,0
22.01.2021 22:00:00 3,1 2,2 - - 5 3 - - WSW 0,0
22.01.2021 21:00:00 3,9 3,3 - - 5 3 - - WSW 0,0
22.01.2021 20:00:00 3,3 2,8 - - 5 3 - - SSW 0,0
22.01.2021 19:00:00 3,9 2,5 - - 4 2 - - S 1,0
22.01.2021 18:00:00 5,2 3,2 - - 9 5 - - S 0,0
22.01.2021 17:00:00 4,6 1,1 - - 2 1 - - SSW 0,0
22.01.2021 16:00:00 7,1 1,4 - - 5 3 - - WSW 0,0
22.01.2021 15:00:00 7,2 0,9 - - 8 4 - - WSW 0,0
22.01.2021 14:00:00 8,9 -0,4 - - 9 5 - - WSW 0,0
22.01.2021 13:00:00 8,0 1,8 - - 5 3 - - SW 0,0
22.01.2021 12:00:00 6,8 2,2 - - 8 4 - - SW 0,0
22.01.2021 11:00:00 5,3 2,6 - - 5 3 - - SW 0,0
22.01.2021 10:00:00 1,7 1,6 - - 5 3 - - WSW 0,0
22.01.2021 09:00:00 -1,6 -1,8 5,7 8,5 4 2 - - SW 0,0
22.01.2021 08:00:00 -1,5 -1,7 - - 4 2 - - SW 0,0
22.01.2021 07:00:00 -1,6 -2,0 - - 2 1 - - SW 0,0
22.01.2021 06:00:00 -0,8 -1,2 - - 4 2 - - SW 0,0
22.01.2021 05:00:00 -0,2 -0,5 - - 5 3 - - SSW 0,0
22.01.2021 04:00:00 0,2 -0,4 - - 4 2 - - WSW 0,0
22.01.2021 03:00:00 1,4 0,5 - - 8 4 - - WSW 0,0
22.01.2021 02:00:00 1,0 0,1 - - 5 3 - - SW 0,0
22.01.2021 01:00:00 2,8 1,0 - - 8 4 - - WSW 0,0
22.01.2021 00:00:00 3,3 1,0 - - 9 5 - - W 0,0
21.01.2021 23:00:00 3,9 1,1 - - 8 4 - - W 0,0
21.01.2021 22:00:00 5,3 2,0 - - 9 5 - - W 0,0
21.01.2021 21:00:00 5,9 2,3 - - 8 4 - - W 0,0
21.01.2021 20:00:00 5,4 3,3 - - 4 2 - - WSW 0,0
21.01.2021 19:00:00 6,1 3,5 - - 5 3 - - SW 0,0
21.01.2021 18:00:00 5,8 2,6 - - 4 2 - - SW 0,0
21.01.2021 17:00:00 6,8 2,4 - - 5 3 - - SSW 0,0
21.01.2021 16:00:00 7,7 2,3 - - 8 4 - - SW 0,0
21.01.2021 15:00:00 8,0 2,1 - - 9 5 - - WSW 0,0
21.01.2021 14:00:00 8,4 2,1 - - 13 7 - - WSW 0,0
21.01.2021 13:00:00 8,7 2,1 - - 16 9 - - WSW 0,0
21.01.2021 12:00:00 8,5 2,1 - - 16 9 46 25 WSW 0,0
21.01.2021 11:00:00 8,5 2,0 - - 18 10 - - WSW 0,0
21.01.2021 10:00:00 7,3 2,4 - - 15 8 - - WSW 0,0
21.01.2021 09:00:00 6,3 2,1 6,7 8,5 15 8 - - SW 0,0
21.01.2021 08:00:00 5,4 1,8 - - 11 6 - - SW 0,0
21.01.2021 07:00:00 4,9 1,9 - - 16 9 - - SW 0,0
21.01.2021 06:00:00 4,3 1,5 - - 15 8 - - SW 0,0
21.01.2021 05:00:00 4,1 1,5 - - 13 7 - - SW 0,0
21.01.2021 04:00:00 4,0 1,1 - - 13 7 - - WSW 0,0
21.01.2021 03:00:00 4,4 0,7 - - 15 8 50 27 W 0,0
21.01.2021 02:00:00 5,3 2,1 - - 22 12 52 28 W 0,0
21.01.2021 01:00:00 5,6 3,7 - - 24 13 54 29 W 0,4
21.01.2021 00:00:00 6,8 5,1 - - 21 11 57 31 W 2,0
20.01.2021 23:00:00 9,4 8,2 - - 22 12 57 31 S 0,2
20.01.2021 22:00:00 9,1 7,5 - - 22 12 55 30 S 0,0
20.01.2021 21:00:00 10,0 6,7 - - 24 13 52 28 S 0,0
20.01.2021 20:00:00 9,2 7,3 - - 24 13 48 26 S 0,2
20.01.2021 19:00:00 9,9 7,6 - - 22 12 50 27 S 0,0
20.01.2021 18:00:00 9,6 8,5 - - 21 11 50 27 S 0,8
20.01.2021 17:00:00 9,2 7,9 - - 21 11 - - S 0,2
20.01.2021 16:00:00 9,4 7,8 - - 15 8 46 25 S 0,4
20.01.2021 15:00:00 9,8 7,9 - - 21 11 - - SSW 0,2
20.01.2021 14:00:00 10,0 8,3 - - 21 11 - - SSW 0,0
20.01.2021 13:00:00 9,8 8,3 - - 16 9 - - SSW 0,2
20.01.2021 12:00:00 10,0 8,3 - - 16 9 52 28 SSW 0,0
20.01.2021 11:00:00 10,3 8,3 - - 18 10 - - SSW 0,0
20.01.2021 10:00:00 10,2 8,6 - - 15 8 52 28 SSW 0,0
20.01.2021 09:00:00 10,0 8,4 6,9 8,2 16 9 48 26 SSW 0,2
20.01.2021 08:00:00 10,1 8,5 - - 21 11 - - SSW 0,0
20.01.2021 07:00:00 10,4 8,9 - - 16 9 - - SSW 0,0
20.01.2021 06:00:00 10,1 8,8 - - 18 10 - - SSW 0,0
20.01.2021 05:00:00 10,1 8,9 - - 18 10 - - SSW 0,4
20.01.2021 04:00:00 10,0 9,1 - - 16 9 - - SSW 0,0
20.01.2021 03:00:00 10,3 9,0 - - 16 9 - - SSW 0,2
20.01.2021 02:00:00 10,2 9,0 - - 13 7 - - SSW 0,0
20.01.2021 01:00:00 10,3 8,9 - - 16 9 - - SSW 0,0
20.01.2021 00:00:00 10,4 8,9 - - 13 7 - - SSW 0,0
19.01.2021 23:00:00 10,3 8,7 - - 16 9 46 25 SSW 0,0
19.01.2021 22:00:00 10,1 8,4 - - 16 9 - - SSW 0,0
19.01.2021 21:00:00 9,7 8,1 - - 15 8 - - SSW 0,0
19.01.2021 20:00:00 9,7 8,2 - - 18 10 - - SSW 0,2
19.01.2021 19:00:00 9,9 7,9 - - 16 9 - - SSW 0,0
19.01.2021 18:00:00 10,6 7,7 - - 15 8 - - SSW 0,0
19.01.2021 17:00:00 9,9 8,0 - - 15 8 - - SW 0,0
19.01.2021 16:00:00 10,5 7,4 - - 16 9 - - SW 0,0
19.01.2021 15:00:00 10,1 8,0 - - 16 9 - - SW 0,0
19.01.2021 14:00:00 10,7 7,5 - - 15 8 - - WSW 0,0
19.01.2021 13:00:00 11,4 6,9 - - 15 8 - - WSW 0,0
19.01.2021 12:00:00 11,3 8,0 - - 16 9 - - WSW 0,0
19.01.2021 11:00:00 11,6 9,2 - - 13 7 - - WSW 0,0
19.01.2021 10:00:00 11,7 9,0 - - 11 6 - - WSW 0,0
19.01.2021 09:00:00 11,6 8,9 5,7 8,0 13 7 - - WSW 0,0
19.01.2021 08:00:00 11,6 9,1 - - 16 9 - - WSW 0,0
19.01.2021 07:00:00 11,6 9,5 - - 16 9 - - WSW 0,0
19.01.2021 06:00:00 11,3 10,0 - - 13 7 - - WSW 0,0
19.01.2021 05:00:00 10,9 10,1 - - 11 6 - - WSW 0,2
19.01.2021 04:00:00 10,2 9,5 - - 13 7 - - SW 0,6
19.01.2021 03:00:00 9,7 8,9 - - 13 7 - - SW 1,0
19.01.2021 02:00:00 10,1 8,7 - - 18 10 - - SW 0,2
19.01.2021 01:00:00 9,6 8,7 - - 13 7 - - SSW 0,0
19.01.2021 00:00:00 8,9 8,0 - - 11 6 - - SSW 0,0
18.01.2021 23:00:00 8,5 7,2 - - 13 7 - - SSW 0,0
18.01.2021 22:00:00 8,3 6,8 - - 13 7 - - SSW 0,0
18.01.2021 21:00:00 8,3 6,4 - - 18 10 - - SSW 0,0
18.01.2021 20:00:00 8,0 6,0 - - 13 7 - - SSW 0,0
18.01.2021 19:00:00 7,0 4,9 - - 9 5 - - SSW 0,0
18.01.2021 18:00:00 6,7 4,1 - - 5 3 - - S 0,0
18.01.2021 17:00:00 7,0 3,6 - - 8 4 - - SSW 0,0
18.01.2021 16:00:00 6,7 3,8 - - 8 4 - - SSW 0,0
18.01.2021 15:00:00 7,0 3,9 - - 4 2 - - SW 0,0
18.01.2021 14:00:00 6,6 3,9 - - 5 3 - - SW 0,0
18.01.2021 13:00:00 6,4 3,9 - - 9 5 - - SW 0,0
18.01.2021 12:00:00 6,4 4,4 - - 8 4 - - WSW 0,0
18.01.2021 11:00:00 5,4 4,2 - - 8 4 - - SW 0,0
18.01.2021 10:00:00 4,0 3,6 - - 5 3 - - SW 0,2
18.01.2021 09:00:00 2,6 2,5 4,5 8,0 - - - - - 0,0
18.01.2021 08:00:00 1,9 1,8 - - - - - - - 0,0
18.01.2021 07:00:00 1,1 1,1 - - - - - - - 0,0
18.01.2021 06:00:00 -0,2 -0,5 - - - - - - - 0,0

tt = Température de l'air
td = dewpoint
tt -20cm = Température de l'air -20cm
tt -100cm = Température de l'air -100cm
ff = Vitesse du vent
fx = gusts
dd = Direction du vent
rr = Quantités de précipitations

stations d'obs. à proximité